METAR AND TAF INFORMATION
METAR FOR EGNX
ADDS - METARS form results

(1937 UTC 24 March 2019)
Data provider http://aviationweather.gov/metar/data/
 
METAR text: EGNX 241920Z 27016KT 9999 BKN035 08/02 Q1027
Conditions at: EGNX (EAST MIDLANDS , GB) observed 1920 UTC 24 March 2019
Temperature: 8.0°C (46°F)
Dewpoint: 2.0°C (36°F) [RH = 66%]
Pressure (altimeter): 30.32 inches Hg (1027.0 mb)
Winds: from the W (270 degrees) at 18 MPH (16 knots; 8.2 m/s)
Visibility: 6 or more miles (10+ km)
Ceiling: 3500 feet AGL
Clouds: broken clouds at 3500 feet AGL
Weather: no significant weather observed at this time

METAR text: EGNX 241850Z 27014KT 9999 BKN040 09/02 Q1027
Conditions at: EGNX (EAST MIDLANDS , GB) observed 1850 UTC 24 March 2019
Temperature: 9.0°C (48°F)
Dewpoint: 2.0°C (36°F) [RH = 61%]
Pressure (altimeter): 30.32 inches Hg (1027.0 mb)
Winds: from the W (270 degrees) at 16 MPH (14 knots; 7.2 m/s)
Visibility: 6 or more miles (10+ km)
Ceiling: 4000 feet AGL
Clouds: broken clouds at 4000 feet AGL
Weather: no significant weather observed at this time

Forecast for: EGNX (EAST MIDLANDS , GB)
Text: TAF EGNX 241653Z 2418/2518 29014KT 9999 FEW040
Forecast period: 1800 UTC 24 March 2019 to 0900 UTC 25 March 2019
Forecast type: FROM: standard forecast or significant change
Winds: from the WNW (290 degrees) at 16 MPH (14 knots; 7.2 m/s)
Visibility: 6 or more miles 10+ km)
Ceiling: at least 12,000 feet AGL
Clouds: few clouds at 4000 feet AGL
Weather: no significant weather forecast for this period
Text: PROB30
Forecast period: 1800 UTC 24 March 2019 to 0200 UTC 25 March 2019
Forecast type: TEMPORARY: The following changes expected for less than half the time period
Winds: from the WNW (290 degrees) at 20 MPH (17 knots; 8.7 m/s)
gusting to 31 MPH (27 knots; 13.9 m/s)
Visibility: 6 miles (9 km)
Ceiling: unknown
Clouds: missing
Weather: -SHRA  (light rain showers)
Text: TEMPO 2418/2502 29017G27KT 9000 -SHRA
Forecast period: 0900 to 1800 UTC 25 March 2019
Forecast type: BECOMING: Conditions expected to become as follows by 1200 UTC 25 March 2019
Winds: from the N (350 degrees) at 9 MPH (8 knots; 4.1 m/s)
Visibility: 6 or more miles 10+ km)
Ceiling: at least 12,000 feet AGL
Clouds: few clouds at 4000 feet AGL
Weather: no significant weather forecast for this period

 AIRPORT MAP

 RUNWAY INFORMATION
Runway 09 Runway length 9491 ft Runway width 151 ft
Runway elevation 306 ft Runway displaced threshold 590 ft Runway heading 88
Runway 27 Runway length 9491 ft Runway width 151 ft
Runway elevation 282 ft Runway displaced threshold 426 ft Runway heading 268

 AIRPORT FREQUENCIES
Type APP Name APP Frequency 134.175 MHZ
Type ATIS Name ATIS Frequency 128.225 MHZ
Type Fire servi Name Frequency 121.6 MHZ
Type GND Name GND Frequency 121.9 MHZ
Type TWR Name TWR Frequency 124 MHZ

 AIRPORT NEAR NAVIGATION AIDS



Powered by Virtual Airlines Manager [v2.6.2]